createdAt,value
2024-01-03T00:01:14.920Z,94703.13
2024-01-03T00:03:17.952Z,94688.78
2024-01-03T00:05:23.857Z,94680.53
2024-01-03T00:07:25.823Z,94699.69
2024-01-03T00:09:27.968Z,94713.72
2024-01-03T00:11:32.160Z,94680.69
2024-01-03T00:13:36.832Z,94692.19
2024-01-03T00:15:38.861Z,94705.66
2024-01-03T00:17:44.868Z,94704.72
2024-01-03T00:19:54.600Z,94709.22
2024-01-03T00:21:57.306Z,94693.53
2024-01-03T00:24:06.569Z,94706.69
2024-01-03T00:26:10.244Z,94694.16
2024-01-03T00:28:12.872Z,94691.91
2024-01-03T00:30:15.486Z,94688.63
2024-01-03T00:32:21.989Z,94664.13
2024-01-03T00:34:40.228Z,94641.22
2024-01-03T00:36:42.196Z,94647.06
2024-01-03T00:38:44.397Z,94681.31
2024-01-03T00:40:56.138Z,94678.75
2024-01-03T00:42:58.494Z,94677.13
2024-01-03T00:45:00.319Z,94666.81
2024-01-03T00:47:02.355Z,94717.31
2024-01-03T00:49:04.264Z,94704.44
2024-01-03T00:51:06.880Z,94705.50
2024-01-03T00:53:08.850Z,94689.34
2024-01-03T00:55:10.971Z,94743.34
2024-01-03T00:57:13.376Z,94709.41
2024-01-03T00:59:16.698Z,94725.25
2024-01-03T01:01:18.538Z,94730.78
2024-01-03T01:03:20.294Z,94739.03
2024-01-03T01:05:22.440Z,94734.53
2024-01-03T01:07:24.222Z,94723.75
2024-01-03T01:09:26.360Z,94743.06
2024-01-03T01:11:27.972Z,94749.81
2024-01-03T01:13:29.593Z,94745.97
2024-01-03T01:15:31.224Z,94743.88
2024-01-03T01:17:32.956Z,94736.78
2024-01-03T01:19:35.330Z,94728.56
2024-01-03T01:21:41.162Z,94750.22
2024-01-03T01:23:43.434Z,94775.34
2024-01-03T01:25:45.656Z,94754.84
2024-01-03T01:27:47.677Z,94755.03
2024-01-03T01:29:49.436Z,94763.69
2024-01-03T01:31:51.218Z,94734.09
2024-01-03T01:33:53.513Z,94743.81
2024-01-03T01:35:56.245Z,94750.97
2024-01-03T01:37:57.947Z,94761.69
2024-01-03T01:39:59.617Z,94764.06
2024-01-03T01:42:01.258Z,94769.75
2024-01-03T01:44:02.933Z,94770.16
2024-01-03T01:46:05.725Z,94765.09
2024-01-03T01:48:08.922Z,94776.13
2024-01-03T01:50:11.755Z,94781.38
2024-01-03T01:52:16.015Z,94776.59
2024-01-03T01:54:18.726Z,94772.69
2024-01-03T01:56:21.535Z,94781.16
2024-01-03T01:58:24.131Z,94779.97
2024-01-03T02:00:25.685Z,94787.09
2024-01-03T02:02:27.594Z,94797.25
2024-01-03T02:04:29.610Z,94779.66
2024-01-03T02:06:32.156Z,94794.28
2024-01-03T02:08:34.698Z,94787.28
2024-01-03T02:10:36.404Z,94793.88
2024-01-03T02:12:39.202Z,94790.41
2024-01-03T02:14:42.392Z,94796.09
2024-01-03T02:16:44.271Z,94797.16
2024-01-03T02:18:47.944Z,94820.78
2024-01-03T02:20:53.204Z,94799.72
2024-01-03T02:22:55.680Z,94799.59
2024-01-03T02:24:57.461Z,94808.34
2024-01-03T02:26:59.114Z,94784.75
2024-01-03T02:29:00.745Z,94817.19
2024-01-03T02:31:02.540Z,94804.00
2024-01-03T02:33:05.490Z,94800.63
2024-01-03T02:35:07.529Z,94825.69
2024-01-03T02:37:10.730Z,94812.53
2024-01-03T02:39:12.342Z,94806.28
2024-01-03T02:41:14.005Z,94808.84
2024-01-03T02:43:15.639Z,94799.59
2024-01-03T02:45:17.265Z,94816.50
2024-01-03T02:47:18.937Z,94812.59
2024-01-03T02:49:20.981Z,94827.94
2024-01-03T02:51:23.805Z,94802.69
2024-01-03T02:53:25.434Z,94811.06
2024-01-03T02:55:27.074Z,94804.28
2024-01-03T02:57:28.703Z,94814.34
2024-01-03T02:59:30.564Z,94816.66
2024-01-03T03:01:32.200Z,94807.88
2024-01-03T03:03:34.381Z,94813.28
2024-01-03T03:05:36.229Z,94811.63
2024-01-03T03:07:38.879Z,94808.75
2024-01-03T03:09:40.395Z,94809.28
2024-01-03T03:11:43.078Z,94805.13
2024-01-03T03:13:44.903Z,94816.06
2024-01-03T03:15:47.986Z,94821.44
2024-01-03T03:17:49.864Z,94814.78
2024-01-03T03:19:51.817Z,94807.47
2024-01-03T03:21:53.619Z,94800.28
2024-01-03T03:23:55.804Z,94809.56
2024-01-03T03:25:57.695Z,94816.31
2024-01-03T03:27:59.976Z,94825.56
2024-01-03T03:30:03.122Z,94812.78
2024-01-03T03:32:06.518Z,94823.78
2024-01-03T03:34:08.460Z,94813.53
2024-01-03T03:36:14.280Z,94810.19
2024-01-03T03:38:15.901Z,94833.78
2024-01-03T03:40:17.601Z,94821.88
2024-01-03T03:42:25.328Z,94820.84
2024-01-03T03:44:27.544Z,94816.56
2024-01-03T03:46:29.188Z,94828.69
2024-01-03T03:48:31.007Z,94824.03
2024-01-03T03:50:33.499Z,94824.03
2024-01-03T03:52:36.427Z,94831.34
2024-01-03T03:54:38.031Z,94827.28
2024-01-03T03:56:39.734Z,94846.44
2024-01-03T03:58:41.816Z,94839.09
2024-01-03T04:00:43.755Z,94833.00
2024-01-03T04:02:46.812Z,94833.75
2024-01-03T04:04:48.439Z,94861.72
2024-01-03T04:06:50.218Z,94833.00
2024-01-03T04:08:51.951Z,94838.72
2024-01-03T04:10:53.654Z,94865.56
2024-01-03T04:12:56.374Z,94831.47
2024-01-03T04:14:58.106Z,94837.28
2024-01-03T04:16:59.961Z,94837.47
2024-01-03T04:19:02.349Z,94830.56
2024-01-03T04:21:06.598Z,94826.03
2024-01-03T04:23:08.241Z,94851.63
2024-01-03T04:25:10.391Z,94839.97
2024-01-03T04:27:12.147Z,94838.00
2024-01-03T04:29:13.971Z,94828.75
2024-01-03T04:31:15.890Z,94847.69
2024-01-03T04:33:17.656Z,94842.78
2024-01-03T04:35:19.487Z,94833.25
2024-01-03T04:37:21.188Z,94831.00
2024-01-03T04:39:22.743Z,94852.34
2024-01-03T04:41:24.469Z,94838.56
2024-01-03T04:43:26.138Z,94839.75
2024-01-03T04:45:27.925Z,94833.06
2024-01-03T04:47:29.972Z,94838.81
2024-01-03T04:49:31.747Z,94831.69
2024-01-03T04:51:33.489Z,94830.81
2024-01-03T04:53:35.123Z,94843.06
2024-01-03T04:55:37.074Z,94852.94
2024-01-03T04:57:39.431Z,94838.44
2024-01-03T04:59:41.189Z,94839.63
2024-01-03T05:01:44.597Z,94862.34
2024-01-03T05:03:46.328Z,94862.22
2024-01-03T05:05:48.002Z,94856.56
2024-01-03T05:07:49.883Z,94861.97
2024-01-03T05:09:51.883Z,94876.28
2024-01-03T05:11:53.616Z,94860.78
2024-01-03T05:13:55.794Z,94868.84
2024-01-03T05:15:58.738Z,94856.72
2024-01-03T05:18:01.314Z,94861.50
2024-01-03T05:20:05.350Z,94873.59
2024-01-03T05:22:06.967Z,94872.88
2024-01-03T05:24:09.813Z,94867.59
2024-01-03T05:26:14.954Z,94868.97
2024-01-03T05:28:16.727Z,94871.06
2024-01-03T05:30:18.458Z,94877.72
2024-01-03T05:32:20.104Z,94863.59
2024-01-03T05:34:21.999Z,94869.41
2024-01-03T05:36:23.730Z,94859.16
2024-01-03T05:38:25.579Z,94868.97
2024-01-03T05:40:27.140Z,94874.03
2024-01-03T05:42:28.766Z,94865.97
2024-01-03T05:44:30.512Z,94877.63
2024-01-03T05:46:32.565Z,94875.56
2024-01-03T05:48:34.542Z,94868.66
2024-01-03T05:50:36.388Z,94878.50
2024-01-03T05:52:38.031Z,94884.34
2024-01-03T05:54:39.585Z,94883.66
2024-01-03T05:56:41.283Z,94878.00
2024-01-03T05:58:43.349Z,94876.22
2024-01-03T06:00:45.091Z,94875.97
2024-01-03T06:02:46.668Z,94866.75
2024-01-03T06:04:49.303Z,94867.72
2024-01-03T06:06:51.488Z,94885.09
2024-01-03T06:08:54.227Z,94873.59
2024-01-03T06:10:56.294Z,94873.22
2024-01-03T06:12:58.032Z,94865.16
2024-01-03T06:14:59.956Z,94890.69
2024-01-03T06:17:12.767Z,94897.13
2024-01-03T06:19:33.278Z,94888.50
2024-01-03T06:21:44.260Z,94882.66
2024-01-03T06:23:46.263Z,94898.00
2024-01-03T06:25:47.970Z,94901.00
2024-01-03T06:27:50.261Z,94890.34
2024-01-03T06:29:51.928Z,94887.84
2024-01-03T06:31:53.635Z,94882.63
2024-01-03T06:33:55.594Z,94878.88
2024-01-03T06:36:00.308Z,94883.38
2024-01-03T06:38:05.505Z,94883.13
2024-01-03T06:40:07.979Z,94885.03
2024-01-03T06:42:09.633Z,94891.47
2024-01-03T06:44:11.509Z,94880.09
2024-01-03T06:46:13.307Z,94886.34
2024-01-03T06:48:15.614Z,94885.88
2024-01-03T06:50:18.011Z,94896.19
2024-01-03T06:52:20.097Z,94882.47
2024-01-03T06:54:22.667Z,94897.88
2024-01-03T06:56:26.185Z,94884.09
2024-01-03T06:58:28.074Z,94881.47
2024-01-03T07:00:29.665Z,94884.09
2024-01-03T07:02:31.317Z,94882.31
2024-01-03T07:04:32.986Z,94892.34
2024-01-03T07:06:35.540Z,94888.28
2024-01-03T07:08:37.471Z,94899.16
2024-01-03T07:10:39.089Z,94894.09
2024-01-03T07:12:40.769Z,94912.16
2024-01-03T07:14:42.428Z,94896.84
2024-01-03T07:16:44.279Z,94911.03
2024-01-03T07:18:46.394Z,94908.22
2024-01-03T07:20:48.238Z,94911.66
2024-01-03T07:22:50.573Z,94907.72
2024-01-03T07:24:52.184Z,94896.69
2024-01-03T07:26:53.985Z,94914.06
2024-01-03T07:28:55.627Z,94909.09
2024-01-03T07:30:57.797Z,94905.97
2024-01-03T07:32:59.749Z,94888.19
2024-01-03T07:35:01.682Z,94908.69
2024-01-03T07:37:03.402Z,94899.41
2024-01-03T07:39:06.603Z,94898.81
2024-01-03T07:41:08.615Z,94918.84
2024-01-03T07:43:10.476Z,94891.06
2024-01-03T07:45:12.167Z,94894.81
2024-01-03T07:47:13.885Z,94892.56
2024-01-03T07:49:17.344Z,94897.25
2024-01-03T07:51:19.921Z,94895.31
2024-01-03T07:53:21.881Z,94902.78
2024-01-03T07:55:25.015Z,94893.16
2024-01-03T07:57:27.225Z,94904.19
2024-01-03T07:59:29.302Z,94880.56
2024-01-03T08:01:32.025Z,94889.41
2024-01-03T08:03:34.307Z,94900.59
2024-01-03T08:05:36.391Z,94876.81
2024-01-03T08:07:38.282Z,94879.38
2024-01-03T08:09:40.199Z,94864.28
2024-01-03T08:11:41.952Z,94862.66
2024-01-03T08:13:43.630Z,94882.66
2024-01-03T08:15:45.231Z,94870.69
2024-01-03T08:17:47.228Z,94866.53
2024-01-03T08:19:49.146Z,94874.91
2024-01-03T08:21:51.209Z,94870.72
2024-01-03T08:23:52.908Z,94861.63
2024-01-03T08:25:54.666Z,94875.53
2024-01-03T08:27:56.319Z,94886.28
2024-01-03T08:29:58.415Z,94874.66
2024-01-03T08:32:00.150Z,94869.38
2024-01-03T08:34:02.051Z,94875.31
2024-01-03T08:36:04.111Z,94875.78
2024-01-03T08:38:05.813Z,94871.34
2024-01-03T08:40:10.020Z,94878.50
2024-01-03T08:42:11.666Z,94866.31
2024-01-03T08:44:13.981Z,94864.91
2024-01-03T08:46:15.835Z,94871.53
2024-01-03T08:48:17.857Z,94875.69
2024-01-03T08:50:19.763Z,94877.19
2024-01-03T08:52:21.484Z,94889.56
2024-01-03T08:54:25.805Z,94885.03
2024-01-03T08:56:27.546Z,94901.28
2024-01-03T08:58:29.231Z,94897.91
2024-01-03T09:00:30.979Z,94905.25
2024-01-03T09:02:32.667Z,94886.00
2024-01-03T09:04:34.433Z,94901.63
2024-01-03T09:06:37.361Z,94886.53
2024-01-03T09:08:39.156Z,94886.06
2024-01-03T09:10:41.186Z,94883.75
2024-01-03T09:12:42.835Z,94882.09
2024-01-03T09:14:44.931Z,94883.59
2024-01-03T09:16:46.887Z,94884.66
2024-01-03T09:18:48.919Z,94879.19
2024-01-03T09:20:50.639Z,94882.75
2024-01-03T09:22:53.669Z,94873.81
2024-01-03T09:24:56.040Z,94880.38
2024-01-03T09:26:58.910Z,94871.28
2024-01-03T09:29:01.109Z,94882.41
2024-01-03T09:31:04.003Z,94872.13
2024-01-03T09:33:05.827Z,94885.47
2024-01-03T09:35:07.891Z,94890.28
2024-01-03T09:37:10.595Z,94877.13
2024-01-03T09:39:13.636Z,94896.47
2024-01-03T09:41:15.662Z,94893.28
2024-01-03T09:43:17.697Z,94880.88
2024-01-03T09:45:19.831Z,94883.13
2024-01-03T09:47:21.586Z,94886.31
2024-01-03T09:49:23.670Z,94894.22
2024-01-03T09:51:25.775Z,94913.53
2024-01-03T09:53:27.935Z,94883.28
2024-01-03T09:55:30.519Z,94878.97
2024-01-03T09:57:32.801Z,94901.44
2024-01-03T09:59:36.798Z,94885.00
2024-01-03T10:01:39.523Z,94875.75
2024-01-03T10:03:41.479Z,94878.16
2024-01-03T10:05:44.526Z,94881.13
2024-01-03T10:07:46.709Z,94888.34
2024-01-03T10:09:50.202Z,94912.25
2024-01-03T10:11:55.299Z,94886.03
2024-01-03T10:14:01.090Z,94876.31
2024-01-03T10:16:05.355Z,94890.97
2024-01-03T10:18:13.593Z,94896.97
2024-01-03T10:20:28.084Z,94909.84
2024-01-03T10:22:29.858Z,94899.22
2024-01-03T10:24:32.749Z,94895.53
2024-01-03T10:26:34.861Z,94910.72
2024-01-03T10:28:37.073Z,94902.38
2024-01-03T10:30:39.021Z,94919.25
2024-01-03T10:32:40.720Z,94899.50
2024-01-03T10:34:42.504Z,94906.72
2024-01-03T10:36:46.624Z,94905.81
2024-01-03T10:38:48.752Z,94907.91
2024-01-03T10:40:51.680Z,94899.41
2024-01-03T10:42:54.332Z,94891.63
2024-01-03T10:44:55.956Z,94908.13
2024-01-03T10:46:57.632Z,94915.59
2024-01-03T10:48:59.538Z,94894.50
2024-01-03T10:51:03.395Z,94902.41
2024-01-03T10:53:09.453Z,94910.66
2024-01-03T10:55:18.847Z,94911.09
2024-01-03T10:57:24.852Z,94910.81
2024-01-03T10:59:37.593Z,94922.03
2024-01-03T11:01:48.466Z,94925.50
2024-01-03T11:04:15.226Z,94926.38
2024-01-03T11:06:24.053Z,94921.88
2024-01-03T11:08:35.084Z,94924.59
2024-01-03T11:10:54.958Z,94924.47
2024-01-03T11:12:58.723Z,94914.72
2024-01-03T11:15:37.579Z,94913.25
2024-01-03T11:17:45.901Z,94909.81
2024-01-03T11:19:48.163Z,94916.81
2024-01-03T11:21:51.471Z,94907.28
2024-01-03T11:23:53.335Z,94912.06
2024-01-03T11:25:55.849Z,94899.75
2024-01-03T11:28:38.027Z,94887.03
2024-01-03T11:30:43.465Z,94912.34
2024-01-03T11:32:47.737Z,94911.91
2024-01-03T11:34:50.913Z,94895.25
2024-01-03T11:36:53.357Z,94895.88
2024-01-03T11:38:55.006Z,94896.94
2024-01-03T11:40:56.814Z,94886.28
2024-01-03T11:42:59.279Z,94885.38
2024-01-03T11:45:15.702Z,94875.22
2024-01-03T11:47:22.142Z,94887.16
2024-01-03T11:49:23.944Z,94883.16
2024-01-03T11:51:27.608Z,94894.53
2024-01-03T11:53:30.478Z,94888.25
2024-01-03T11:55:32.409Z,94881.38
2024-01-03T11:57:38.509Z,94875.22
2024-01-03T11:59:40.213Z,94897.84
2024-01-03T12:01:59.160Z,94882.41
2024-01-03T12:04:14.329Z,94901.44
2024-01-03T12:06:21.091Z,94889.75
2024-01-03T12:08:22.958Z,94906.69
2024-01-03T12:10:26.089Z,94893.03
2024-01-03T12:12:28.494Z,94910.88
2024-01-03T12:14:31.808Z,94907.88
2024-01-03T12:16:33.587Z,94891.72
2024-01-03T12:18:48.718Z,94893.06
2024-01-03T12:20:53.196Z,94910.56
2024-01-03T12:22:54.918Z,94893.50
2024-01-03T12:24:56.556Z,94900.06
2024-01-03T12:26:58.497Z,94891.09
2024-01-03T12:29:02.531Z,94883.63
2024-01-03T12:31:17.781Z,94876.41
2024-01-03T12:33:20.073Z,94883.59
2024-01-03T12:35:22.092Z,94878.97
2024-01-03T12:37:23.739Z,94872.22
2024-01-03T12:39:25.416Z,94868.63
2024-01-03T12:41:27.151Z,94885.84
2024-01-03T12:43:28.821Z,94879.09
2024-01-03T12:45:30.631Z,94875.06
2024-01-03T12:47:32.501Z,94870.13
2024-01-03T12:49:37.469Z,94872.81
2024-01-03T12:51:44.228Z,94860.22
2024-01-03T12:53:48.977Z,94862.19
2024-01-03T12:55:50.676Z,94857.25
2024-01-03T12:57:52.391Z,94868.78
2024-01-03T12:59:54.153Z,94861.88
2024-01-03T13:01:56.049Z,94854.09
2024-01-03T13:03:57.814Z,94850.03
2024-01-03T13:05:59.577Z,94861.13
2024-01-03T13:08:01.187Z,94851.25
2024-01-03T13:10:02.910Z,94857.25
2024-01-03T13:12:04.868Z,94849.75
2024-01-03T13:14:06.604Z,94849.75
2024-01-03T13:16:08.848Z,94829.22
2024-01-03T13:18:11.511Z,94856.94
2024-01-03T13:20:19.681Z,94848.84
2024-01-03T13:22:22.023Z,94858.72
2024-01-03T13:24:24.259Z,94843.75
2024-01-03T13:26:26.237Z,94844.53
2024-01-03T13:28:28.542Z,94852.00
2024-01-03T13:30:30.350Z,94851.25
2024-01-03T13:32:32.037Z,94847.66
2024-01-03T13:34:37.263Z,94846.75
2024-01-03T13:36:40.186Z,94851.56
2024-01-03T13:38:42.034Z,94851.84
2024-01-03T13:40:44.292Z,94845.72
2024-01-03T13:42:46.004Z,94826.53
2024-01-03T13:44:48.104Z,94847.03
2024-01-03T13:46:49.914Z,94848.25
2024-01-03T13:48:51.776Z,94845.84
2024-01-03T13:50:54.271Z,94832.69
2024-01-03T13:52:56.844Z,94836.56
2024-01-03T13:54:58.664Z,94835.38
2024-01-03T13:57:00.314Z,94838.63
2024-01-03T13:59:02.028Z,94838.94
2024-01-03T14:01:03.986Z,94849.09
2024-01-03T14:03:06.245Z,94848.34
2024-01-03T14:05:08.647Z,94851.78
2024-01-03T14:07:10.432Z,94857.91
2024-01-03T14:09:12.058Z,94842.78
2024-01-03T14:11:14.919Z,94834.09
2024-01-03T14:13:17.227Z,94849.03
2024-01-03T14:15:18.963Z,94837.84
2024-01-03T14:17:22.476Z,94837.66
2024-01-03T14:19:24.530Z,94824.53
2024-01-03T14:21:27.023Z,94832.94
2024-01-03T14:23:28.834Z,94825.09
2024-01-03T14:25:30.754Z,94831.69
2024-01-03T14:27:32.505Z,94828.09
2024-01-03T14:29:34.266Z,94840.41
2024-01-03T14:31:36.413Z,94828.31
2024-01-03T14:33:38.877Z,94836.94
2024-01-03T14:35:41.082Z,94844.88
2024-01-03T14:37:43.464Z,94849.19
2024-01-03T14:39:48.870Z,94865.22
2024-01-03T14:41:51.317Z,94842.13
2024-01-03T14:44:00.205Z,94845.25
2024-01-03T14:46:03.296Z,94854.41
2024-01-03T14:48:05.563Z,94850.47
2024-01-03T14:50:07.864Z,94867.31
2024-01-03T14:52:09.975Z,94848.75
2024-01-03T14:54:11.676Z,94855.59
2024-01-03T14:56:14.545Z,94855.66
2024-01-03T14:58:16.685Z,94842.53
2024-01-03T15:00:18.584Z,94863.81
2024-01-03T15:02:20.364Z,94862.31
2024-01-03T15:04:22.435Z,94856.44
2024-01-03T15:06:24.430Z,94864.94
2024-01-03T15:08:26.725Z,94852.16
2024-01-03T15:10:28.460Z,94854.59
2024-01-03T15:12:30.116Z,94849.50
2024-01-03T15:14:34.303Z,94856.25
2024-01-03T15:16:36.730Z,94859.72
2024-01-03T15:18:39.198Z,94859.13
2024-01-03T15:20:42.026Z,94849.69
2024-01-03T15:22:44.852Z,94841.97
2024-01-03T15:24:46.755Z,94846.44
2024-01-03T15:26:48.956Z,94840.38
2024-01-03T15:28:50.608Z,94840.03
2024-01-03T15:30:52.344Z,94869.13
2024-01-03T15:32:54.999Z,94838.72
2024-01-03T15:34:56.877Z,94852.44
2024-01-03T15:37:00.774Z,94828.31
2024-01-03T15:39:02.837Z,94841.94
2024-01-03T15:41:06.531Z,94831.44
2024-01-03T15:43:08.559Z,94832.81
2024-01-03T15:45:13.448Z,94833.88
2024-01-03T15:47:16.146Z,94825.72
2024-01-03T15:49:18.872Z,94817.81
2024-01-03T15:51:21.109Z,94823.28
2024-01-03T15:53:23.019Z,94822.66
2024-01-03T15:55:24.907Z,94817.56
2024-01-03T15:57:27.544Z,94832.78
2024-01-03T15:59:29.154Z,94824.13
2024-01-03T16:01:31.037Z,94820.84
2024-01-03T16:03:32.748Z,94829.47
2024-01-03T16:05:34.489Z,94825.34
2024-01-03T16:07:36.178Z,94805.28
2024-01-03T16:09:38.654Z,94805.91
2024-01-03T16:11:40.478Z,94809.75
2024-01-03T16:13:42.310Z,94808.00
2024-01-03T16:15:44.212Z,94819.34
2024-01-03T16:17:46.030Z,94819.00
2024-01-03T16:19:47.945Z,94814.75
2024-01-03T16:21:52.019Z,94814.88
2024-01-03T16:23:54.916Z,94815.59
2024-01-03T16:25:56.690Z,94812.16
2024-01-03T16:28:00.925Z,94798.44
2024-01-03T16:30:02.675Z,94792.44
2024-01-03T16:32:06.808Z,94800.63
2024-01-03T16:34:08.972Z,94795.13
2024-01-03T16:36:10.891Z,94788.31
2024-01-03T16:38:13.274Z,94784.41
2024-01-03T16:40:15.121Z,94780.22
2024-01-03T16:42:19.216Z,94771.41
2024-01-03T16:44:21.015Z,94759.16
2024-01-03T16:46:22.942Z,94766.22
2024-01-03T16:48:25.162Z,94755.63
2024-01-03T16:50:27.216Z,94751.94
2024-01-03T16:52:29.511Z,94764.00
2024-01-03T16:54:31.500Z,94767.13
2024-01-03T16:56:33.460Z,94780.59
2024-01-03T16:58:35.084Z,94777.47
2024-01-03T17:00:36.799Z,94769.81
2024-01-03T17:02:40.257Z,94773.38
2024-01-03T17:04:42.914Z,94773.38
2024-01-03T17:06:46.669Z,94766.34
2024-01-03T17:08:50.565Z,94760.03
2024-01-03T17:10:52.854Z,94763.78
2024-01-03T17:12:56.296Z,94768.97
2024-01-03T17:14:58.164Z,94763.22
2024-01-03T17:17:02.926Z,94768.00
2024-01-03T17:19:05.219Z,94763.06
2024-01-03T17:21:14.611Z,94759.06
2024-01-03T17:23:16.340Z,94762.16
2024-01-03T17:25:18.571Z,94757.53
2024-01-03T17:27:20.535Z,94753.34
2024-01-03T17:29:22.632Z,94757.84
2024-01-03T17:31:25.143Z,94751.28
2024-01-03T17:33:27.000Z,94755.63
2024-01-03T17:35:28.671Z,94746.09
2024-01-03T17:37:31.405Z,94745.94
2024-01-03T17:39:34.281Z,94739.63
2024-01-03T17:41:40.444Z,94748.13
2024-01-03T17:43:42.271Z,94743.78
2024-01-03T17:45:44.089Z,94742.28
2024-01-03T17:47:45.939Z,94730.34
2024-01-03T17:49:48.007Z,94732.84
2024-01-03T17:51:49.673Z,94718.47
2024-01-03T17:53:55.402Z,94711.81
2024-01-03T17:55:59.185Z,94712.75
2024-01-03T17:58:01.017Z,94702.56
2024-01-03T18:00:03.603Z,94696.13
2024-01-03T18:02:09.511Z,94693.69
2024-01-03T18:04:12.936Z,94683.00
2024-01-03T18:06:15.258Z,94681.06
2024-01-03T18:08:17.284Z,94685.09
2024-01-03T18:10:19.029Z,94684.91
2024-01-03T18:12:22.231Z,94689.34
2024-01-03T18:14:24.063Z,94693.78
2024-01-03T18:16:25.942Z,94691.75
2024-01-03T18:18:27.827Z,94695.16
2024-01-03T18:20:29.812Z,94693.34
2024-01-03T18:22:33.342Z,94677.97
2024-01-03T18:24:40.806Z,94684.28
2024-01-03T18:26:42.799Z,94672.75
2024-01-03T18:28:44.444Z,94668.88
2024-01-03T18:30:46.700Z,94695.34
2024-01-03T18:32:52.132Z,94691.09
2024-01-03T18:34:55.661Z,94697.50
2024-01-03T18:36:57.454Z,94690.50
2024-01-03T18:38:59.540Z,94696.94
2024-01-03T18:41:01.260Z,94691.56
2024-01-03T18:43:04.019Z,94687.53
2024-01-03T18:45:06.269Z,94689.41
2024-01-03T18:47:07.891Z,94685.94
2024-01-03T18:49:09.832Z,94700.53
2024-01-03T18:51:15.323Z,94692.97
2024-01-03T18:53:17.985Z,94698.34
2024-01-03T18:55:20.765Z,94700.28
2024-01-03T18:57:22.793Z,94691.59
2024-01-03T18:59:24.631Z,94710.84
2024-01-03T19:01:27.030Z,94732.25
2024-01-03T19:03:28.673Z,94710.88
2024-01-03T19:05:31.174Z,94723.19
2024-01-03T19:07:33.473Z,94725.50
2024-01-03T19:09:35.351Z,94734.63
2024-01-03T19:11:37.060Z,94730.38
2024-01-03T19:13:38.690Z,94736.81
2024-01-03T19:15:40.938Z,94736.38
2024-01-03T19:17:43.335Z,94743.25
2024-01-03T19:19:45.260Z,94748.84
2024-01-03T19:21:47.005Z,94739.16
2024-01-03T19:23:48.642Z,94754.94
2024-01-03T19:25:50.400Z,94739.94
2024-01-03T19:27:51.991Z,94754.59
2024-01-03T19:29:54.297Z,94744.00
2024-01-03T19:31:56.956Z,94737.00
2024-01-03T19:33:58.826Z,94743.63
2024-01-03T19:36:00.926Z,94754.19
2024-01-03T19:38:02.935Z,94749.03
2024-01-03T19:40:05.039Z,94760.84
2024-01-03T19:42:07.333Z,94758.50
2024-01-03T19:44:10.919Z,94765.03
2024-01-03T19:46:13.092Z,94785.47
2024-01-03T19:48:15.119Z,94774.44
2024-01-03T19:50:17.320Z,94772.72
2024-01-03T19:52:19.380Z,94767.25
2024-01-03T19:54:21.654Z,94784.84
2024-01-03T19:56:23.609Z,94776.06
2024-01-03T19:58:28.667Z,94781.97
2024-01-03T20:00:30.285Z,94775.94
2024-01-03T20:02:32.533Z,94789.34
2024-01-03T20:04:34.872Z,94796.78
2024-01-03T20:06:37.357Z,94798.84
2024-01-03T20:08:39.025Z,94799.56
2024-01-03T20:10:40.879Z,94808.59
2024-01-03T20:12:42.525Z,94793.44
2024-01-03T20:14:44.273Z,94825.75
2024-01-03T20:16:47.629Z,94814.28
2024-01-03T20:18:51.270Z,94809.97
2024-01-03T20:20:53.433Z,94804.38
2024-01-03T20:23:00.012Z,94815.44
2024-01-03T20:25:02.321Z,94826.66
2024-01-03T20:27:04.385Z,94819.13
2024-01-03T20:29:08.650Z,94826.66
2024-01-03T20:31:17.538Z,94829.31
2024-01-03T20:33:19.511Z,94833.81
2024-01-03T20:35:21.326Z,94836.25
2024-01-03T20:37:23.156Z,94850.66
2024-01-03T20:39:24.773Z,94850.44
2024-01-03T20:41:26.445Z,94845.75
2024-01-03T20:43:28.083Z,94847.00
2024-01-03T20:45:30.148Z,94849.16
2024-01-03T20:47:31.938Z,94848.97
2024-01-03T20:49:33.803Z,94841.00
2024-01-03T20:51:35.554Z,94851.75
2024-01-03T20:53:37.167Z,94856.88
2024-01-03T20:55:38.964Z,94846.91
2024-01-03T20:57:42.509Z,94850.00
2024-01-03T20:59:44.178Z,94852.59
2024-01-03T21:01:47.487Z,94850.56
2024-01-03T21:03:49.141Z,94852.16
2024-01-03T21:05:51.235Z,94858.50
2024-01-03T21:07:53.880Z,94851.50
2024-01-03T21:09:55.409Z,94852.91
2024-01-03T21:11:57.191Z,94858.28
2024-01-03T21:14:06.695Z,94868.47
2024-01-03T21:16:08.354Z,94873.84
2024-01-03T21:18:10.721Z,94870.03
2024-01-03T21:20:12.979Z,94851.75
2024-01-03T21:22:14.708Z,94878.19
2024-01-03T21:24:16.515Z,94870.13
2024-01-03T21:26:20.241Z,94868.19
2024-01-03T21:28:21.862Z,94868.63
2024-01-03T21:30:23.717Z,94872.59
2024-01-03T21:32:25.680Z,94867.66
2024-01-03T21:34:27.458Z,94860.00
2024-01-03T21:36:29.485Z,94871.16
2024-01-03T21:38:31.585Z,94858.72
2024-01-03T21:40:33.186Z,94876.22
2024-01-03T21:42:35.363Z,94873.97
2024-01-03T21:44:37.456Z,94878.59
2024-01-03T21:46:39.332Z,94875.69
2024-01-03T21:48:41.015Z,94873.66
2024-01-03T21:50:43.497Z,94883.22
2024-01-03T21:52:47.798Z,94884.59
2024-01-03T21:54:49.600Z,94886.22
2024-01-03T21:56:51.519Z,94870.66
2024-01-03T21:58:53.225Z,94868.28
2024-01-03T22:00:55.106Z,94886.34
2024-01-03T22:02:56.817Z,94880.09
2024-01-03T22:05:04.128Z,94876.22
2024-01-03T22:07:06.012Z,94872.47
2024-01-03T22:09:07.869Z,94885.34
2024-01-03T22:11:09.607Z,94895.03
2024-01-03T22:13:15.232Z,94901.25
2024-01-03T22:15:18.718Z,94891.78
2024-01-03T22:17:20.529Z,94891.03
2024-01-03T22:19:22.608Z,94885.19
2024-01-03T22:21:24.426Z,94892.75
2024-01-03T22:23:26.193Z,94900.03
2024-01-03T22:25:28.198Z,94883.84
2024-01-03T22:27:30.115Z,94901.75
2024-01-03T22:29:31.860Z,94897.91
2024-01-03T22:31:34.199Z,94898.75
2024-01-03T22:33:36.007Z,94893.84
2024-01-03T22:35:37.935Z,94887.47
2024-01-03T22:37:39.584Z,94885.22
2024-01-03T22:39:41.269Z,94876.22
2024-01-03T22:41:43.340Z,94864.38
2024-01-03T22:43:45.142Z,94864.38
2024-01-03T22:45:47.238Z,94860.97
2024-01-03T22:47:52.901Z,94865.47
2024-01-03T22:49:56.654Z,94847.81
2024-01-03T22:51:58.409Z,94840.53
2024-01-03T22:54:02.378Z,94831.50
2024-01-03T22:56:04.764Z,94848.03
2024-01-03T22:58:06.471Z,94838.81
2024-01-03T23:00:13.563Z,94834.31
2024-01-03T23:02:15.449Z,94834.84
2024-01-03T23:04:18.008Z,94837.63
2024-01-03T23:06:19.833Z,94849.59
2024-01-03T23:08:22.067Z,94856.03
2024-01-03T23:10:24.115Z,94866.75
2024-01-03T23:12:25.777Z,94863.09
2024-01-03T23:14:27.437Z,94857.72
2024-01-03T23:16:29.009Z,94841.41
2024-01-03T23:18:31.489Z,94858.91
2024-01-03T23:20:33.522Z,94847.94
2024-01-03T23:22:35.314Z,94854.09
2024-01-03T23:24:36.994Z,94857.31
2024-01-03T23:26:38.700Z,94866.44
2024-01-03T23:28:41.327Z,94851.00
2024-01-03T23:30:43.348Z,94858.81
2024-01-03T23:32:45.103Z,94871.59
2024-01-03T23:34:46.812Z,94846.59
2024-01-03T23:36:48.580Z,94860.84
2024-01-03T23:38:51.230Z,94851.88
2024-01-03T23:40:53.005Z,94890.31
2024-01-03T23:42:55.323Z,94885.16
2024-01-03T23:44:57.156Z,94907.81
2024-01-03T23:47:00.081Z,94889.03
2024-01-03T23:49:01.839Z,94923.50
2024-01-03T23:51:04.123Z,94898.78
2024-01-03T23:53:06.614Z,94919.94
2024-01-03T23:55:09.043Z,94919.50
2024-01-03T23:57:10.901Z,94932.72
2024-01-03T23:59:12.787Z,94931.00
